Time;durP1;ratioP1;P1;durP2;ratioP2;P2;SDS_P1;SDS_P2;PMS_P1;PMS_P2;Temp;Humidity;BMP_temperature;BMP_pressure;BME280_temperature;BME280_humidity;BME280_pressure;Samples;Min_cycle;Max_cycle;Signal;HPM_P1;HPM_P2
2021/11/04 00:00:46;;;;;;;5.15;2.53;;;;;;;16.75;58.45;97218.00;5656756;22;20052;-85
2021/11/04 00:03:15;;;;;;;5.35;2.40;;;;;;;16.84;58.95;97253.25;5053808;28;20032;-85
2021/11/04 00:05:41;;;;;;;5.53;3.13;;;;;;;16.82;59.11;97257.94;5051595;28;20036;-85
2021/11/04 00:08:07;;;;;;;6.45;2.67;;;;;;;16.79;59.42;97256.38;5037915;28;20403;-84
2021/11/04 00:10:34;;;;;;;6.88;2.65;;;;;;;16.74;59.54;97269.44;5046415;28;20503;-85
2021/11/04 00:12:59;;;;;;;6.15;3.13;;;;;;;16.61;59.57;97253.50;5034567;28;20452;-85
2021/11/04 00:15:25;;;;;;;3.10;2.40;;;;;;;16.77;59.30;97286.22;5023762;28;20086;-84
2021/11/04 00:17:51;;;;;;;4.28;3.05;;;;;;;16.79;59.39;97265.34;5037407;28;20054;-84
2021/11/04 00:20:17;;;;;;;4.72;2.75;;;;;;;16.65;59.85;97257.63;5053970;28;20029;-86
2021/11/04 00:22:44;;;;;;;12.32;3.10;;;;;;;16.72;58.90;97252.53;5040788;28;20111;-85
2021/11/04 00:25:10;;;;;;;8.50;2.75;;;;;;;16.75;59.43;97268.47;5053714;28;20025;-83
2021/11/04 00:27:36;;;;;;;7.88;3.42;;;;;;;16.58;59.54;97232.16;5054692;28;20024;-84
2021/11/04 00:30:03;;;;;;;7.20;3.67;;;;;;;16.52;60.24;97242.66;5039574;28;20049;-83
2021/11/04 00:32:29;;;;;;;6.07;2.83;;;;;;;16.59;59.82;97239.28;5054772;28;20558;-84
2021/11/04 00:34:54;;;;;;;4.25;2.88;;;;;;;16.55;60.26;97259.44;5054980;28;20056;-84
2021/11/04 00:37:20;;;;;;;4.05;2.30;;;;;;;16.41;60.55;97250.88;5056144;28;20031;-85
2021/11/04 00:39:46;;;;;;;4.20;2.65;;;;;;;16.48;60.61;97249.34;5039565;28;20040;-84
2021/11/04 00:42:12;;;;;;;6.97;2.92;;;;;;;16.43;60.94;97255.13;5035047;28;20021;-85
2021/11/04 00:44:37;;;;;;;3.70;2.60;;;;;;;16.29;61.17;97236.63;5051232;28;20043;-85
2021/11/04 00:47:03;;;;;;;6.30;2.25;;;;;;;16.39;60.67;97232.13;5059015;28;20052;-85
2021/11/04 00:49:29;;;;;;;5.45;2.45;;;;;;;16.36;60.81;97231.53;5055537;28;20036;-85
2021/11/04 00:51:54;;;;;;;6.22;3.05;;;;;;;16.28;60.92;97216.03;5039647;28;20029;-84
2021/11/04 00:54:20;;;;;;;3.10;2.00;;;;;;;16.39;60.64;97226.72;5054924;28;20024;-84
2021/11/04 00:56:48;;;;;;;6.78;3.40;;;;;;;16.39;60.93;97256.41;5032182;28;20019;-85
2021/11/04 00:59:13;;;;;;;3.92;2.25;;;;;;;16.40;60.37;97249.16;5018281;28;20113;-85
2021/11/04 01:01:39;;;;;;;5.13;2.53;;;;;;;16.48;59.85;97252.88;5033110;28;20084;-84
2021/11/04 01:04:05;;;;;;;6.55;3.00;;;;;;;16.54;59.68;97259.56;5035783;28;20033;-84
2021/11/04 01:06:30;;;;;;;7.07;3.35;;;;;;;16.63;59.08;97277.69;5055925;28;20025;-85
2021/11/04 01:08:56;;;;;;;7.03;3.20;;;;;;;16.65;58.93;97264.88;5049821;28;20479;-85
2021/11/04 01:11:23;;;;;;;3.28;2.05;;;;;;;16.64;58.73;97268.59;5057316;28;20503;-84
2021/11/04 01:13:49;;;;;;;4.75;2.35;;;;;;;16.65;59.21;97273.84;5077129;28;20444;-85
2021/11/04 01:16:15;;;;;;;5.40;2.95;;;;;;;16.53;59.67;97261.41;5040839;28;20068;-85
2021/11/04 01:18:41;;;;;;;4.78;3.00;;;;;;;16.52;59.63;97265.09;5059357;28;20025;-85
2021/11/04 01:21:07;;;;;;;9.13;2.92;;;;;;;16.37;59.64;97228.69;5038573;28;20116;-85
2021/11/04 01:23:32;;;;;;;6.05;2.70;;;;;;;16.42;59.71;97252.59;5041820;28;20024;-85
2021/11/04 01:25:58;;;;;;;5.10;2.40;;;;;;;16.44;59.44;97245.19;5041038;28;20020;-85
2021/11/04 01:28:24;;;;;;;5.18;3.03;;;;;;;16.35;59.79;97227.97;5037457;28;20033;-85
2021/11/04 01:30:49;;;;;;;6.20;2.90;;;;;;;16.29;60.10;97247.44;5051381;28;20048;-84
2021/11/04 01:33:15;;;;;;;10.77;3.55;;;;;;;16.09;60.61;97246.50;5078269;28;20029;-84
2021/11/04 01:35:41;;;;;;;5.95;3.00;;;;;;;16.02;61.32;97266.09;5045211;28;20069;-84
2021/11/04 01:38:11;;;;;;;6.95;3.40;;;;;;;16.12;60.77;97266.97;5057123;28;20024;-84
2021/11/04 01:40:37;;;;;;;6.10;3.10;;;;;;;16.19;60.60;97277.09;5055047;28;20120;-85
2021/11/04 01:43:04;;;;;;;5.10;3.13;;;;;;;16.26;60.34;97277.41;5071949;28;20505;-85
2021/11/04 01:45:31;;;;;;;8.20;3.28;;;;;;;16.26;59.96;97291.75;5062364;28;20037;-83
2021/11/04 01:47:57;;;;;;;5.75;2.75;;;;;;;16.30;60.09;97289.66;5027952;28;20029;-84
2021/11/04 01:50:23;;;;;;;6.85;2.72;;;;;;;16.18;59.63;97277.25;5056431;28;20163;-85
2021/11/04 01:52:50;;;;;;;6.60;3.03;;;;;;;16.41;59.67;97316.53;5056117;28;20112;-85
2021/11/04 01:55:21;;;;;;;4.80;2.70;;;;;;;16.41;59.30;97294.94;5054780;28;20033;-85
2021/11/04 01:57:48;;;;;;;5.35;3.05;;;;;;;16.40;59.55;97289.66;5059082;28;20095;-85
2021/11/04 02:00:15;;;;;;;5.47;2.80;;;;;;;16.42;59.69;97307.44;5053255;28;20033;-83
2021/11/04 02:02:46;;;;;;;5.40;2.60;;;;;;;16.33;60.07;97296.59;5028139;28;20044;-85
2021/11/04 02:05:18;;;;;;;7.95;3.58;;;;;;;16.30;60.16;97305.84;5030898;28;20045;-84
2021/11/04 02:07:51;;;;;;;4.80;2.70;;;;;;;16.14;60.57;97297.38;5031372;28;20033;-83
2021/11/04 02:10:39;;;;;;;9.05;2.60;;;;;;;16.18;60.59;97299.66;5047188;28;20036;-85
2021/11/04 02:13:40;;;;;;;5.88;2.92;;;;;;;16.22;60.42;97305.63;5048240;28;20029;-84
2021/11/04 02:16:06;;;;;;;5.28;2.80;;;;;;;16.26;60.27;97304.38;5060558;28;20450;-85
2021/11/04 02:18:33;;;;;;;5.70;2.65;;;;;;;16.26;60.39;97296.28;5059705;28;20025;-84
2021/11/04 02:21:05;;;;;;;3.90;2.78;;;;;;;16.23;60.52;97305.53;5062495;28;20028;-85
2021/11/04 02:23:31;;;;;;;3.60;2.63;;;;;;;16.29;60.44;97296.03;5059408;28;20086;-84
2021/11/04 02:25:57;;;;;;;4.60;2.58;;;;;;;16.18;60.17;97283.47;5059939;28;20037;-85
2021/11/04 02:28:22;;;;;;;4.40;2.67;;;;;;;16.30;60.17;97305.84;5059738;28;20036;-85
2021/11/04 02:30:48;;;;;;;10.15;3.30;;;;;;;16.23;60.34;97319.00;5025756;28;20021;-85
2021/11/04 02:33:16;;;;;;;6.25;2.97;;;;;;;15.73;61.73;97303.69;5047728;28;20052;-84
2021/11/04 02:35:48;;;;;;;5.20;3.10;;;;;;;15.59;62.48;97306.72;5042004;28;20052;-85
2021/11/04 02:38:17;;;;;;;4.50;3.08;;;;;;;15.95;61.80;97317.03;5064493;28;20115;-85
2021/11/04 02:40:43;;;;;;;5.95;3.03;;;;;;;15.78;61.76;97295.22;5051010;28;20087;-85
2021/11/04 02:43:09;;;;;;;7.60;3.10;;;;;;;15.88;61.86;97305.06;5067254;28;20028;-83
2021/11/04 02:45:35;;;;;;;5.15;2.40;;;;;;;16.02;61.31;97314.66;5060690;28;20020;-86
2021/11/04 02:48:00;;;;;;;5.15;3.25;;;;;;;16.10;61.08;97328.31;5065501;28;20028;-84
2021/11/04 02:50:26;;;;;;;7.88;2.70;;;;;;;15.82;61.94;97326.31;5052609;28;20032;-84
2021/11/04 02:52:52;;;;;;;7.75;3.40;;;;;;;15.70;62.29;97337.19;5065676;28;20064;-84
2021/11/04 02:55:19;;;;;;;3.88;2.58;;;;;;;15.50;63.15;97343.44;5049450;28;20025;-85
2021/11/04 02:57:47;;;;;;;9.35;3.22;;;;;;;15.36;64.00;97316.72;5038317;28;20376;-74
2021/11/04 03:00:15;;;;;;;5.57;3.20;;;;;;;15.40;64.00;97330.81;5052096;28;20021;-72
2021/11/04 03:02:40;;;;;;;9.90;4.57;;;;;;;15.34;64.36;97318.72;5036462;28;20887;-73
2021/11/04 03:05:06;;;;;;;5.90;3.55;;;;;;;15.25;65.08;97327.56;5050484;28;20112;-73
2021/11/04 03:07:32;;;;;;;9.35;3.70;;;;;;;15.03;66.38;97335.75;5063790;28;20495;-73
2021/11/04 03:09:57;;;;;;;5.80;3.20;;;;;;;14.93;66.45;97334.78;5051031;28;20021;-73
2021/11/04 03:12:23;;;;;;;8.23;3.67;;;;;;;14.71;67.48;97335.69;5032026;28;20035;-72
2021/11/04 03:14:49;;;;;;;7.18;3.30;;;;;;;14.57;68.18;97320.69;5049897;28;20099;-72
2021/11/04 03:17:15;;;;;;;6.38;3.78;;;;;;;14.41;69.52;97328.28;5035154;28;20440;-72
2021/11/04 03:19:41;;;;;;;5.88;3.30;;;;;;;14.23;70.13;97331.56;5054787;28;20091;-72
2021/11/04 03:22:06;;;;;;;9.35;4.40;;;;;;;14.10;71.06;97329.84;5051623;28;20086;-72
2021/11/04 03:24:32;;;;;;;9.02;3.92;;;;;;;14.06;71.36;97323.00;5056047;28;20108;-73
2021/11/04 03:27:03;;;;;;;9.13;4.13;;;;;;;13.87;72.75;97316.53;5032381;28;20451;-73
2021/11/04 03:29:35;;;;;;;11.18;4.47;;;;;;;13.83;73.43;97331.19;5021878;28;20029;-72
2021/11/04 03:32:12;;;;;;;12.10;5.20;;;;;;;13.73;74.47;97330.19;5032750;28;20044;-73
2021/11/04 03:34:38;;;;;;;11.48;4.18;;;;;;;13.65;75.75;97338.00;5055398;28;20393;-73
2021/11/04 03:37:05;;;;;;;16.25;4.55;;;;;;;13.49;76.80;97328.44;5033485;28;20036;-73
2021/11/04 03:39:31;;;;;;;8.43;4.78;;;;;;;13.48;76.75;97332.09;5050494;28;20063;-73
2021/11/04 03:41:58;;;;;;;9.00;4.25;;;;;;;13.51;76.63;97326.47;5051710;28;20032;-73
2021/11/04 03:44:25;;;;;;;11.63;3.90;;;;;;;13.48;76.96;97328.53;5052468;28;20542;-72
2021/11/04 03:46:52;;;;;;;5.53;3.35;;;;;;;13.41;77.14;97324.63;5053863;28;20448;-73
2021/11/04 03:49:20;;;;;;;8.20;3.70;;;;;;;13.33;77.48;97332.41;5034283;28;20017;-73
2021/11/04 03:51:48;;;;;;;8.80;3.58;;;;;;;13.31;77.94;97329.84;5054522;28;20033;-73
2021/11/04 03:54:14;;;;;;;8.43;3.72;;;;;;;13.22;78.86;97332.38;5048657;28;20107;-73
2021/11/04 03:56:40;;;;;;;8.52;4.43;;;;;;;13.16;79.50;97324.78;5034294;28;20108;-73
2021/11/04 03:59:05;;;;;;;19.83;4.50;;;;;;;13.11;79.82;97321.56;5052695;28;20476;-73
2021/11/04 04:01:32;;;;;;;6.22;3.80;;;;;;;13.09;83.18;97320.84;5052162;28;20074;-73
2021/11/04 04:03:58;;;;;;;10.43;4.60;;;;;;;13.01;80.64;97316.84;5034482;28;20036;-72
2021/11/04 04:06:23;;;;;;;7.72;4.15;;;;;;;12.99;80.15;97313.44;5034479;28;20017;-73
2021/11/04 04:08:51;;;;;;;8.52;3.85;;;;;;;12.95;81.38;97325.38;5034235;28;20514;-72
2021/11/04 04:11:16;;;;;;;7.80;4.13;;;;;;;12.85;81.71;97308.28;5050915;28;20029;-73
2021/11/04 04:13:42;;;;;;;21.75;6.60;;;;;;;12.79;82.98;97319.47;5052254;28;20483;-73
2021/11/04 04:16:07;;;;;;;18.65;6.72;;;;;;;12.73;83.47;97311.00;5052165;28;20542;-73
2021/11/04 04:18:33;;;;;;;10.05;4.63;;;;;;;12.71;83.40;97299.50;5033853;28;20036;-73
2021/11/04 04:20:59;;;;;;;15.38;5.28;;;;;;;12.64;84.47;97309.00;5053991;28;20025;-74
2021/11/04 04:23:24;;;;;;;12.00;5.80;;;;;;;12.57;84.57;97305.06;5050768;28;20025;-73
2021/11/04 04:25:50;;;;;;;7.18;4.50;;;;;;;12.65;83.73;97291.91;5055337;28;20097;-85
2021/11/04 04:28:17;;;;;;;11.45;5.00;;;;;;;12.64;84.05;97290.22;5062576;28;20074;-84
2021/11/04 04:30:43;;;;;;;13.40;6.40;;;;;;;12.64;84.60;97299.13;5047810;28;20021;-84
2021/11/04 04:33:08;;;;;;;15.57;6.93;;;;;;;12.55;85.36;97307.00;5046889;28;20156;-85
2021/11/04 04:35:34;;;;;;;22.83;8.45;;;;;;;12.38;85.88;97292.13;5063879;28;20415;-86
2021/11/04 04:37:59;;;;;;;28.02;9.43;;;;;;;12.48;86.62;97307.47;5048774;28;20060;-85
2021/11/04 04:40:25;;;;;;;22.85;10.57;;;;;;;12.39;87.16;97305.44;5066467;28;20025;-85
2021/11/04 04:42:51;;;;;;;19.80;9.65;;;;;;;12.45;85.99;97296.94;5044438;28;20036;-84
2021/11/04 04:45:17;;;;;;;25.60;10.25;;;;;;;12.52;85.71;97298.19;5042150;28;20051;-85
2021/11/04 04:47:42;;;;;;;15.20;6.18;;;;;;;12.59;85.25;97292.38;5061250;28;20029;-85
2021/11/04 04:50:08;;;;;;;30.83;9.65;;;;;;;12.61;85.63;97296.69;5064019;28;20468;-84
2021/11/04 04:52:34;;;;;;;18.35;8.73;;;;;;;12.58;85.45;97298.72;5066626;28;20058;-84
2021/11/04 04:55:01;;;;;;;15.30;7.32;;;;;;;12.66;85.24;97301.69;5050093;28;20084;-85
2021/11/04 04:57:26;;;;;;;14.13;8.05;;;;;;;12.62;85.87;97305.56;5048468;28;20029;-85
2021/11/04 04:59:57;;;;;;;21.27;9.68;;;;;;;12.60;86.32;97318.25;5065839;28;20033;-85
2021/11/04 05:02:23;;;;;;;18.60;8.82;;;;;;;12.62;87.00;97313.59;5052822;28;20041;-85
2021/11/04 05:04:49;;;;;;;23.08;10.10;;;;;;;12.61;86.82;97299.38;5047013;28;20021;-85
2021/11/04 05:07:15;;;;;;;10.93;6.38;;;;;;;12.59;85.88;97287.00;5060098;28;20040;-84
2021/11/04 05:09:41;;;;;;;26.05;12.15;;;;;;;12.90;84.00;97298.03;5061237;28;20504;-85
2021/11/04 05:12:07;;;;;;;24.13;10.18;;;;;;;13.45;80.42;97292.00;5059940;28;20119;-83
2021/11/04 05:14:33;;;;;;;15.20;5.35;;;;;;;13.73;77.76;97279.09;5066075;28;20032;-85
2021/11/04 05:16:58;;;;;;;9.32;4.45;;;;;;;14.52;72.93;97293.28;5068240;28;20575;-83
2021/11/04 05:19:24;;;;;;;15.40;6.50;;;;;;;14.83;71.09;97302.38;5067362;28;20029;-85
2021/11/04 05:21:50;;;;;;;11.77;6.57;;;;;;;14.55;71.80;97293.03;5047584;28;20457;-85
2021/11/04 05:24:15;;;;;;;13.60;6.22;;;;;;;14.28;72.68;97279.09;5042221;28;20026;-84
2021/11/04 05:26:41;;;;;;;9.05;4.93;;;;;;;14.22;73.26;97278.72;5039337;28;20033;-85
2021/11/04 05:29:07;;;;;;;16.33;5.85;;;;;;;14.14;73.54;97265.91;5023176;28;20032;-84
2021/11/04 05:31:32;;;;;;;8.80;4.80;;;;;;;14.09;74.02;97258.19;5039163;28;20120;-85
2021/11/04 05:33:58;;;;;;;12.02;5.57;;;;;;;14.16;73.71;97273.84;5042071;28;20028;-84
2021/11/04 05:36:25;;;;;;;16.25;6.63;;;;;;;14.18;73.71;97286.19;5061909;28;20017;-84
2021/11/04 05:38:51;;;;;;;8.73;4.97;;;;;;;14.23;73.69;97284.00;5056976;28;20029;-85
2021/11/04 05:41:17;;;;;;;13.50;5.30;;;;;;;14.24;73.46;97269.59;5042533;28;20024;-85
2021/11/04 05:43:43;;;;;;;19.85;7.15;;;;;;;14.39;73.19;97262.97;5062226;28;20036;-87
2021/11/04 05:46:09;;;;;;;25.48;10.18;;;;;;;14.49;72.72;97280.06;5040582;28;20130;-86
2021/11/04 05:48:35;;;;;;;23.10;9.93;;;;;;;14.56;72.65;97294.75;5040593;28;20033;-82
2021/11/04 05:51:00;;;;;;;6.68;2.88;;;;;;;14.96;68.27;97292.28;5061206;28;20408;-84
2021/11/04 05:53:26;;;;;;;9.75;2.35;;;;;;;16.31;62.26;97283.22;5048687;28;20103;-81
2021/11/04 05:55:52;;;;;;;7.65;3.92;;;;;;;17.26;58.39;97287.13;5020615;28;20037;-83
2021/11/04 05:58:18;;;;;;;11.65;6.60;;;;;;;17.04;59.68;97303.63;5020621;28;20104;-84
2021/11/04 06:00:45;;;;;;;11.63;5.72;;;;;;;16.63;61.34;97305.53;5035384;28;20515;-83
2021/11/04 06:03:13;;;;;;;15.82;6.32;;;;;;;16.55;61.26;97278.34;5050073;28;20407;-84
2021/11/04 06:05:41;;;;;;;10.57;3.97;;;;;;;18.04;56.33;97311.25;5036122;28;20040;-84
2021/11/04 06:08:06;;;;;;;9.75;4.25;;;;;;;20.07;49.96;97289.88;5056651;28;20064;-86
2021/11/04 06:10:32;;;;;;;7.88;2.80;;;;;;;21.47;45.83;97298.31;5057750;28;20025;-87
2021/11/04 06:12:58;;;;;;;7.93;3.30;;;;;;;22.27;43.78;97263.88;5073987;28;20031;-86
2021/11/04 06:15:24;;;;;;;9.05;3.22;;;;;;;23.12;41.58;97301.22;5057735;28;20392;-86
2021/11/04 06:17:50;;;;;;;4.90;2.47;;;;;;;23.51;40.01;97303.88;5034235;28;20039;-87
2021/11/04 06:20:16;;;;;;;14.43;3.20;;;;;;;23.54;39.62;97288.00;5040334;28;20053;-87
2021/11/04 06:22:47;;;;;;;6.10;2.65;;;;;;;23.95;39.14;97307.63;5058786;28;20029;-88
2021/11/04 06:25:13;;;;;;;3.45;2.20;;;;;;;24.32;37.77;97264.94;5051307;28;20073;-88
2021/11/04 06:27:39;;;;;;;6.60;2.78;;;;;;;24.24;38.05;97296.78;5041236;28;20049;-87
2021/11/04 06:30:06;;;;;;;9.40;2.40;;;;;;;23.76;38.82;97308.13;5040891;28;20023;-89
2021/11/04 06:32:32;;;;;;;12.82;4.22;;;;;;;24.21;38.12;97297.16;5044540;28;20139;-86
2021/11/04 06:35:20;;;;;;;6.20;2.88;;;;;;;24.09;38.20;97304.06;5043535;28;20073;-88
2021/11/04 06:37:46;;;;;;;8.20;2.78;;;;;;;24.37;37.58;97311.69;5050947;28;20041;-85
2021/11/04 06:40:12;;;;;;;8.20;2.58;;;;;;;24.32;37.55;97297.75;5041690;28;20025;-86
2021/11/04 06:42:39;;;;;;;9.48;3.47;;;;;;;24.73;37.13;97286.16;5054672;28;20045;-86
2021/11/04 06:45:05;;;;;;;5.57;2.65;;;;;;;24.69;37.31;97309.47;5054732;28;20021;-86
2021/11/04 06:47:49;;;;;;;8.60;3.15;;;;;;;24.17;38.39;97328.66;5033912;28;20025;-87
2021/11/04 06:50:20;;;;;;;4.97;3.03;;;;;;;24.59;37.37;97317.09;5043424;28;20087;-86
2021/11/04 06:53:08;;;;;;;14.73;4.28;;;;;;;24.59;37.23;97316.25;5027845;28;20033;-86
2021/11/04 06:55:36;;;;;;;4.90;2.60;;;;;;;24.74;37.07;97330.78;5037717;28;20029;-86
2021/11/04 06:58:05;;;;;;;8.23;3.53;;;;;;;25.01;36.45;97323.84;5046663;28;20033;-85
2021/11/04 07:00:32;;;;;;;6.93;3.03;;;;;;;25.17;35.80;97310.75;5060631;28;20045;-86
2021/11/04 07:03:20;;;;;;;9.02;3.53;;;;;;;25.32;36.36;97319.78;5073628;28;20031;-86
2021/11/04 07:05:47;;;;;;;9.43;5.28;;;;;;;25.63;35.39;97315.94;5024549;28;20063;-86
2021/11/04 07:08:24;;;;;;;5.28;3.25;;;;;;;26.06;34.66;97314.03;5071148;28;20507;-86
2021/11/04 07:11:01;;;;;;;6.93;3.80;;;;;;;26.27;34.01;97322.28;5036407;28;20029;-86
2021/11/04 07:13:31;;;;;;;7.07;3.10;;;;;;;26.21;34.19;97320.34;5041289;28;20028;-86
2021/11/04 07:15:58;;;;;;;8.57;3.03;;;;;;;26.52;33.87;97322.69;5055879;28;20044;-86
2021/11/04 07:18:24;;;;;;;7.78;3.60;;;;;;;26.64;33.70;97326.56;5041669;28;20025;-86
2021/11/04 07:21:03;;;;;;;5.78;2.53;;;;;;;27.20;32.55;97328.19;5042811;28;20431;-88
2021/11/04 07:23:52;;;;;;;7.75;3.00;;;;;;;26.63;33.33;97327.63;5058148;28;20104;-86
2021/11/04 07:26:20;;;;;;;4.82;2.78;;;;;;;26.84;33.03;97342.16;5038997;28;20029;-87
2021/11/04 07:28:53;;;;;;;9.55;3.45;;;;;;;26.92;33.01;97338.38;5057151;28;20041;-86
2021/11/04 07:31:20;;;;;;;7.95;3.05;;;;;;;27.49;32.05;97326.22;5054203;28;20033;-86
2021/11/04 07:33:46;;;;;;;4.75;2.22;;;;;;;27.29;33.30;97345.31;5048074;28;20411;-86
2021/11/04 07:36:16;;;;;;;6.07;2.83;;;;;;;26.59;32.96;97323.56;5037412;28;20028;-88
2021/11/04 07:38:44;;;;;;;6.63;3.65;;;;;;;26.96;33.36;97331.44;5057849;28;20032;-88
2021/11/04 07:41:14;;;;;;;3.08;1.88;;;;;;;27.32;32.37;97331.19;5060354;28;20029;-88
2021/11/04 07:43:40;;;;;;;4.20;2.17;;;;;;;26.84;33.22;97331.16;5044338;28;20439;-87
2021/11/04 07:46:05;;;;;;;6.28;2.80;;;;;;;26.52;33.62;97322.69;5054512;28;20040;-86
2021/11/04 07:48:31;;;;;;;4.60;2.45;;;;;;;25.66;34.84;97338.31;5033498;28;20461;-75
2021/11/04 07:50:58;;;;;;;16.92;5.90;;;;;;;26.03;34.82;97345.44;5051509;28;20093;-74
2021/11/04 07:53:25;;;;;;;10.52;4.90;;;;;;;25.88;34.73;97341.94;5018274;28;20040;-74
2021/11/04 07:55:51;;;;;;;11.68;2.72;;;;;;;26.37;34.20;97336.50;5053609;28;20025;-73
2021/11/04 07:58:17;;;;;;;4.75;2.20;;;;;;;26.13;34.26;97331.41;5053846;28;20028;-88
2021/11/04 08:00:43;;;;;;;5.25;2.67;;;;;;;25.91;34.18;97322.34;5020777;28;20033;-90
2021/11/04 08:03:09;;;;;;;7.65;2.10;;;;;;;26.25;34.27;97324.38;5022950;28;20082;-85
2021/11/04 08:05:35;;;;;;;6.53;2.42;;;;;;;26.35;33.82;97311.16;5026494;28;20085;-88
2021/11/04 08:08:05;;;;;;;4.95;2.83;;;;;;;26.59;33.81;97326.31;5040657;28;20038;-88
2021/11/04 08:10:30;;;;;;;9.13;2.65;;;;;;;27.42;32.24;97327.03;5062820;28;20112;-89
2021/11/04 08:13:02;;;;;;;8.57;3.03;;;;;;;28.09;31.51;97334.41;5063001;28;20027;-87
2021/11/04 08:15:28;;;;;;;;;;;;;;;27.99;31.20;97311.94;5080916;28;20125;-89
2021/11/04 08:17:54;;;;;;;8.23;2.88;;;;;;;28.22;31.08;97304.16;5046188;28;19908;-88
2021/11/04 08:20:22;;;;;;;5.07;3.25;;;;;;;28.46;30.64;97288.88;5044386;28;20036;-89
2021/11/04 08:22:48;;;;;;;8.55;2.60;;;;;;;28.90;29.85;97283.53;5048019;28;20086;-89
2021/11/04 08:25:14;;;;;;;4.28;1.75;;;;;;;28.96;29.64;97292.84;5058415;28;20033;-88
2021/11/04 08:27:39;;;;;;;7.28;2.63;;;;;;;28.61;30.50;97306.03;5041616;28;20029;-89
2021/11/04 08:30:06;;;;;;;6.18;2.70;;;;;;;28.55;30.65;97292.28;5042564;28;20052;-87
2021/11/04 08:32:31;;;;;;;4.80;2.38;;;;;;;28.79;30.36;97291.63;5073355;28;20083;-88
2021/11/04 08:34:57;;;;;;;4.25;2.58;;;;;;;29.03;29.74;97296.44;5042034;28;20489;-88
2021/11/04 08:37:23;;;;;;;6.50;3.00;;;;;;;29.47;29.50;97313.00;5053558;28;20025;-87
2021/11/04 08:39:49;;;;;;;6.78;3.33;;;;;;;28.95;29.95;97307.66;5028522;28;20087;-88
2021/11/04 08:42:15;;;;;;;8.70;2.63;;;;;;;29.29;29.49;97312.88;5036130;28;20086;-88
2021/11/04 08:44:42;;;;;;;3.58;2.42;;;;;;;29.79;28.91;97305.63;5047780;28;20036;-89
2021/11/04 08:47:09;;;;;;;11.30;2.45;;;;;;;29.38;29.08;97327.25;5057788;28;20400;-90
2021/11/04 08:49:35;;;;;;;8.65;2.70;;;;;;;29.67;29.00;97317.59;5027849;28;20028;-88
2021/11/04 08:52:03;;;;;;;5.72;2.38;;;;;;;29.85;28.77;97323.22;5034801;28;20053;-88
2021/11/04 08:54:29;;;;;;;5.22;2.50;;;;;;;29.65;29.13;97319.72;5036834;28;20458;-88
2021/11/04 08:56:55;;;;;;;9.77;2.97;;;;;;;30.00;28.63;97319.09;5019533;28;20026;-89
2021/11/04 08:59:21;;;;;;;6.82;2.50;;;;;;;29.03;29.52;97311.06;5020787;28;20048;-87
2021/11/04 09:01:48;;;;;;;3.97;2.38;;;;;;;28.83;30.07;97320.41;5037968;28;20053;-88
2021/11/04 09:04:13;;;;;;;7.88;2.60;;;;;;;28.95;30.41;97318.69;5031329;28;20041;-87
2021/11/04 09:06:39;;;;;;;5.80;2.38;;;;;;;28.72;30.04;97318.34;5038983;28;20037;-89
2021/11/04 09:09:05;;;;;;;5.60;2.45;;;;;;;28.47;30.41;97310.72;5041196;28;20043;-88
2021/11/04 09:11:31;;;;;;;15.25;2.30;;;;;;;28.38;30.60;97300.97;5041760;28;20190;-89
2021/11/04 09:14:00;;;;;;;4.28;1.95;;;;;;;28.04;31.26;97298.41;5042551;28;20063;-87
2021/11/04 09:16:27;;;;;;;10.57;3.15;;;;;;;28.51;30.84;97312.00;5042297;28;20526;-89
2021/11/04 09:18:53;;;;;;;6.35;2.40;;;;;;;28.71;30.32;97287.19;5042480;28;20121;-88
2021/11/04 09:21:19;;;;;;;12.38;5.07;;;;;;;28.96;30.39;97270.81;5050658;28;20029;-82
2021/11/04 09:23:45;;;;;;;3.53;2.20;;;;;;;28.46;30.52;97275.13;5031058;28;20044;-81
2021/11/04 09:26:11;;;;;;;4.40;1.88;;;;;;;28.29;31.04;97271.13;5036653;28;20036;-83
2021/11/04 09:28:37;;;;;;;5.03;2.50;;;;;;;28.24;31.00;97277.25;5042377;28;20500;-81
2021/11/04 09:31:03;;;;;;;24.42;10.60;;;;;;;28.44;31.02;97286.38;5057244;28;20106;-82
2021/11/04 09:33:29;;;;;;;5.40;2.55;;;;;;;28.85;30.23;97264.09;5033600;28;20476;-82
2021/11/04 09:35:54;;;;;;;7.28;2.58;;;;;;;29.07;30.07;97285.81;5050323;28;20053;-81
2021/11/04 09:38:20;;;;;;;3.90;2.38;;;;;;;28.92;30.21;97283.31;5034984;28;20034;-83
2021/11/04 09:40:46;;;;;;;10.88;4.10;;;;;;;28.85;30.23;97274.25;5048758;28;20124;-81
2021/11/04 09:43:13;;;;;;;4.00;2.30;;;;;;;28.46;30.78;97284.22;5050199;28;20491;-83
2021/11/04 09:45:39;;;;;;;7.03;2.83;;;;;;;27.98;31.26;97288.25;5033464;28;20108;-82
2021/11/04 09:48:05;;;;;;;7.22;2.78;;;;;;;28.14;31.42;97292.53;5049944;28;20510;-82
2021/11/04 09:50:31;;;;;;;5.82;2.38;;;;;;;28.59;30.82;97290.78;5032909;28;20033;-82
2021/11/04 09:52:57;;;;;;;4.43;2.28;;;;;;;29.03;30.03;97290.94;5036071;28;20135;-83
2021/11/04 09:55:26;;;;;;;13.40;2.78;;;;;;;28.61;30.65;97256.47;5044263;28;20495;-81
2021/11/04 09:57:55;;;;;;;9.43;2.70;;;;;;;26.82;33.01;97313.22;5046097;28;20029;-83
2021/11/04 10:00:22;;;;;;;8.85;2.92;;;;;;;27.31;31.95;97289.16;5023491;28;20025;-81
2021/11/04 10:03:07;;;;;;;3.90;2.42;;;;;;;27.70;31.48;97304.06;5041777;28;20032;-81
2021/11/04 10:05:45;;;;;;;5.43;2.40;;;;;;;26.69;32.74;97291.13;5060641;28;20087;-81
2021/11/04 10:08:14;;;;;;;10.27;2.38;;;;;;;25.94;34.33;97301.91;5052164;28;20033;-82
2021/11/04 10:10:43;;;;;;;6.97;2.67;;;;;;;25.69;35.31;97304.19;5031169;28;20025;-82
2021/11/04 10:13:10;;;;;;;9.63;2.72;;;;;;;25.43;35.15;97315.72;5037335;28;20037;-81
2021/11/04 10:15:38;;;;;;;10.27;2.72;;;;;;;26.98;33.42;97279.91;5015169;28;20121;-83
2021/11/04 10:18:10;;;;;;;7.35;3.53;;;;;;;28.43;31.34;97281.91;5023647;28;20025;-83
2021/11/04 10:20:35;;;;;;;;;;;;;;;29.13;30.04;97310.59;5059971;28;20406;-74
2021/11/04 10:23:10;;;;;;;6.60;2.42;;;;;;;28.64;31.02;97272.56;5070968;28;19916;-73
2021/11/04 10:25:36;;;;;;;11.07;2.50;;;;;;;29.21;30.14;97280.03;5055266;28;20546;-74
2021/11/04 10:28:28;;;;;;;5.93;2.20;;;;;;;29.23;30.20;97264.13;5059171;28;20025;-74
2021/11/04 10:30:57;;;;;;;11.27;2.85;;;;;;;29.74;29.69;97263.25;5044997;28;20021;-74
2021/11/04 10:33:30;;;;;;;7.85;2.78;;;;;;;30.65;28.25;97261.66;5054857;28;20033;-74
2021/11/04 10:36:10;;;;;;;5.95;3.10;;;;;;;30.58;27.99;97256.19;5056501;28;20048;-81
2021/11/04 10:38:59;;;;;;;4.07;2.08;;;;;;;29.50;29.57;97246.41;5062716;28;20403;-76
2021/11/04 10:41:31;;;;;;;6.43;1.95;;;;;;;29.51;29.06;97216.94;5047045;28;20552;-76
2021/11/04 10:44:21;;;;;;;8.77;2.50;;;;;;;29.59;29.34;97211.16;5052591;28;20472;-76
2021/11/04 10:46:49;;;;;;;3.67;2.20;;;;;;;29.81;29.38;97223.50;5045614;28;20033;-75
2021/11/04 10:49:17;;;;;;;17.08;3.10;;;;;;;30.40;28.44;97227.72;5062329;28;20027;-76
2021/11/04 10:51:44;;;;;;;14.15;6.40;;;;;;;30.94;28.57;97254.53;5065548;28;20030;-83
2021/11/04 10:54:17;;;;;;;6.70;2.45;;;;;;;30.78;27.93;97250.47;5035903;28;20033;-86
2021/11/04 10:56:47;;;;;;;5.40;2.30;;;;;;;30.26;28.85;97243.53;5053543;28;20053;-86
2021/11/04 10:59:17;;;;;;;5.13;2.40;;;;;;;30.50;28.73;97242.69;5019907;28;20123;-78
2021/11/04 11:01:44;;;;;;;5.15;2.42;;;;;;;30.86;28.05;97252.06;5036541;28;20048;-79
2021/11/04 11:04:16;;;;;;;20.60;2.63;;;;;;;29.94;29.07;97223.44;5069983;28;20451;-80
2021/11/04 11:06:46;;;;;;;5.97;3.03;;;;;;;29.93;29.62;97252.06;5051732;28;20032;-79
2021/11/04 11:09:20;;;;;;;3.38;1.77;;;;;;;30.01;29.15;97259.25;5036495;28;20055;-77
2021/11/04 11:12:04;;;;;;;10.48;4.07;;;;;;;29.98;29.45;97248.66;5053582;28;20025;-79
2021/11/04 11:14:33;;;;;;;14.88;1.85;;;;;;;30.00;29.26;97249.28;5036338;28;20506;-78
2021/11/04 11:17:05;;;;;;;4.93;2.15;;;;;;;29.46;29.35;97201.06;5036803;28;20044;-80
2021/11/04 11:19:47;;;;;;;5.63;2.25;;;;;;;29.25;29.92;97220.72;5036654;28;20488;-80
2021/11/04 11:22:15;;;;;;;4.90;2.00;;;;;;;29.27;30.03;97242.53;5037119;28;20087;-78
2021/11/04 11:24:43;;;;;;;5.85;2.05;;;;;;;29.44;30.08;97247.28;5036459;28;20434;-76
2021/11/04 11:27:16;;;;;;;7.47;2.65;;;;;;;29.17;30.54;97250.38;5035877;28;20065;-76
2021/11/04 11:29:47;;;;;;;3.97;2.17;;;;;;;29.57;30.00;97246.38;5069168;28;20079;-78
2021/11/04 11:32:25;;;;;;;2.60;1.85;;;;;;;29.62;29.56;97260.34;5040968;28;20025;-76
2021/11/04 11:35:09;;;;;;;5.68;2.45;;;;;;;29.48;30.05;97272.50;5054113;28;20028;-75